sensor_id;sensor_type;location;lat;lon;timestamp;pressure;altitude;pressure_sealevel;temperature;humidity
71903;BME280;59778;50.310;18.780;2023-02-28T00:13:37;100059.38;;;0.23;67.85
71903;BME280;59778;50.310;18.780;2023-02-28T00:28:58;100065.38;;;0.27;66.47
71903;BME280;59778;50.310;18.780;2023-02-28T00:44:20;100066.53;;;0.09;66.44
71903;BME280;59778;50.310;18.780;2023-02-28T00:59:42;100067.44;;;-0.05;67.64
71903;BME280;59778;50.310;18.780;2023-02-28T01:15:04;100069.41;;;0.06;68.03
71903;BME280;59778;50.310;18.780;2023-02-28T01:30:25;100068.25;;;0.10;67.28
71903;BME280;59778;50.310;18.780;2023-02-28T01:45:47;100054.56;;;-0.13;68.57
71903;BME280;59778;50.310;18.780;2023-02-28T02:01:08;100049.88;;;-0.09;68.82
71903;BME280;59778;50.310;18.780;2023-02-28T02:47:50;100044.56;;;-0.52;72.63
71903;BME280;59778;50.310;18.780;2023-02-28T03:03:12;100045.66;;;-0.84;74.97
71903;BME280;59778;50.310;18.780;2023-02-28T03:34:39;100063.03;;;-1.22;76.13
71903;BME280;59778;50.310;18.780;2023-02-28T03:50:17;100075.81;;;-1.43;78.27
71903;BME280;59778;50.310;18.780;2023-02-28T04:05:51;100070.78;;;-1.63;79.28
71903;BME280;59778;50.310;18.780;2023-02-28T04:21:13;100075.22;;;-1.79;79.58
71903;BME280;59778;50.310;18.780;2023-02-28T04:36:34;100088.97;;;-1.87;79.71
71903;BME280;59778;50.310;18.780;2023-02-28T04:51:56;100104.16;;;-1.73;78.74
71903;BME280;59778;50.310;18.780;2023-02-28T05:07:17;100107.13;;;-1.62;77.96
71903;BME280;59778;50.310;18.780;2023-02-28T05:22:40;100107.97;;;-2.26;81.77
71903;BME280;59778;50.310;18.780;2023-02-28T05:38:02;100120.59;;;-2.47;83.05
71903;BME280;59778;50.310;18.780;2023-02-28T05:53:23;100132.72;;;-2.41;83.00
71903;BME280;59778;50.310;18.780;2023-02-28T06:08:44;100155.53;;;-2.20;81.64
71903;BME280;59778;50.310;18.780;2023-02-28T06:24:06;100164.66;;;-2.08;80.89
71903;BME280;59778;50.310;18.780;2023-02-28T06:39:29;100182.41;;;-1.76;79.38
71903;BME280;59778;50.310;18.780;2023-02-28T06:54:50;100173.16;;;-1.37;78.16
71903;BME280;59778;50.310;18.780;2023-02-28T07:10:20;100186.88;;;-0.82;76.81
71903;BME280;59778;50.310;18.780;2023-02-28T07:25:42;100186.50;;;-0.61;75.02
71903;BME280;59778;50.310;18.780;2023-02-28T07:41:03;100191.94;;;-0.18;73.76
71903;BME280;59778;50.310;18.780;2023-02-28T07:56:27;100193.88;;;0.36;71.24
71903;BME280;59778;50.310;18.780;2023-02-28T08:11:48;100185.47;;;0.57;70.46
71903;BME280;59778;50.310;18.780;2023-02-28T08:27:10;100191.69;;;0.98;66.62
71903;BME280;59778;50.310;18.780;2023-02-28T08:42:32;100199.97;;;1.86;63.14
71903;BME280;59778;50.310;18.780;2023-02-28T08:57:54;100192.91;;;2.23;61.29
71903;BME280;59778;50.310;18.780;2023-02-28T09:13:18;100190.34;;;2.96;58.83
71903;BME280;59778;50.310;18.780;2023-02-28T09:28:39;100180.53;;;3.31;54.94
71903;BME280;59778;50.310;18.780;2023-02-28T09:44:03;100185.09;;;2.82;55.72
71903;BME280;59778;50.310;18.780;2023-02-28T10:14:54;100197.03;;;2.78;57.26
71903;BME280;59778;50.310;18.780;2023-02-28T10:30:16;100183.94;;;2.73;57.70
71903;BME280;59778;50.310;18.780;2023-02-28T10:45:38;100177.00;;;3.66;53.52
71903;BME280;59778;50.310;18.780;2023-02-28T11:00:59;100163.88;;;3.50;52.59
71903;BME280;59778;50.310;18.780;2023-02-28T11:16:21;100146.78;;;3.97;51.15
71903;BME280;59778;50.310;18.780;2023-02-28T12:18:42;100086.78;;;4.95;49.53
71903;BME280;59778;50.310;18.780;2023-02-28T12:34:18;100080.00;;;5.12;46.63
71903;BME280;59778;50.310;18.780;2023-02-28T12:49:59;100067.53;;;5.73;46.01
71903;BME280;59778;50.310;18.780;2023-02-28T13:05:50;100064.91;;;5.83;46.38
71903;BME280;59778;50.310;18.780;2023-02-28T13:21:28;100063.63;;;5.36;46.03
71903;BME280;59778;50.310;18.780;2023-02-28T13:36:50;100054.03;;;5.63;45.88
71903;BME280;59778;50.310;18.780;2023-02-28T13:52:20;100039.78;;;5.73;45.30
71903;BME280;59778;50.310;18.780;2023-02-28T14:07:56;100033.00;;;6.08;46.24
71903;BME280;59778;50.310;18.780;2023-02-28T14:39:06;100007.44;;;6.03;45.38
71903;BME280;59778;50.310;18.780;2023-02-28T14:54:28;99999.41;;;5.61;46.40
71903;BME280;59778;50.310;18.780;2023-02-28T15:25:40;100009.28;;;5.31;47.77
71903;BME280;59778;50.310;18.780;2023-02-28T15:41:03;99999.41;;;4.36;50.01
71903;BME280;59778;50.310;18.780;2023-02-28T15:56:34;100005.69;;;3.92;51.95
71903;BME280;59778;50.310;18.780;2023-02-28T16:12:00;100012.47;;;3.29;54.05
71903;BME280;59778;50.310;18.780;2023-02-28T16:27:31;100012.75;;;3.02;55.56
71903;BME280;59778;50.310;18.780;2023-02-28T16:42:58;100030.44;;;2.70;57.69
71903;BME280;59778;50.310;18.780;2023-02-28T16:58:20;100039.81;;;2.41;58.89
71903;BME280;59778;50.310;18.780;2023-02-28T17:13:43;100049.78;;;1.77;63.66
71903;BME280;59778;50.310;18.780;2023-02-28T17:29:13;100053.03;;;1.05;64.07
71903;BME280;59778;50.310;18.780;2023-02-28T17:44:35;100059.19;;;0.80;66.59
71903;BME280;59778;50.310;18.780;2023-02-28T17:59:58;100065.34;;;0.41;68.27
71903;BME280;59778;50.310;18.780;2023-02-28T18:15:21;100054.50;;;0.57;68.49
71903;BME280;59778;50.310;18.780;2023-02-28T18:30:45;100067.34;;;0.37;68.84
71903;BME280;59778;50.310;18.780;2023-02-28T18:46:10;100063.97;;;0.07;70.84
71903;BME280;59778;50.310;18.780;2023-02-28T19:01:33;100055.59;;;-0.01;71.58
71903;BME280;59778;50.310;18.780;2023-02-28T19:16:55;100046.03;;;0.09;72.28
71903;BME280;59778;50.310;18.780;2023-02-28T19:32:18;100056.94;;;-0.36;73.78
71903;BME280;59778;50.310;18.780;2023-02-28T19:47:40;100058.28;;;-0.29;74.75
71903;BME280;59778;50.310;18.780;2023-02-28T20:03:04;100045.91;;;-0.44;74.73
71903;BME280;59778;50.310;18.780;2023-02-28T20:18:25;100055.53;;;-0.86;75.42
71903;BME280;59778;50.310;18.780;2023-02-28T20:33:56;100058.44;;;-1.05;77.31
71903;BME280;59778;50.310;18.780;2023-02-28T20:49:19;100055.34;;;-1.27;80.04
71903;BME280;59778;50.310;18.780;2023-02-28T21:04:41;100056.72;;;-1.35;79.93
71903;BME280;59778;50.310;18.780;2023-02-28T21:20:03;100049.91;;;-1.25;79.76
71903;BME280;59778;50.310;18.780;2023-02-28T21:35:24;100052.56;;;-1.25;79.44
71903;BME280;59778;50.310;18.780;2023-02-28T21:50:55;100050.75;;;-1.25;79.14
71903;BME280;59778;50.310;18.780;2023-02-28T22:06:22;100052.56;;;-1.25;78.66
71903;BME280;59778;50.310;18.780;2023-02-28T22:21:44;100060.78;;;-1.44;79.64
71903;BME280;59778;50.310;18.780;2023-02-28T22:37:07;100071.09;;;-1.69;80.55
71903;BME280;59778;50.310;18.780;2023-02-28T22:52:28;100078.22;;;-1.85;81.01
71903;BME280;59778;50.310;18.780;2023-02-28T23:07:49;100094.13;;;-2.32;84.81
71903;BME280;59778;50.310;18.780;2023-02-28T23:23:11;100100.94;;;-2.27;85.01
71903;BME280;59778;50.310;18.780;2023-02-28T23:38:33;100087.81;;;-2.14;84.18
71903;BME280;59778;50.310;18.780;2023-02-28T23:53:54;100081.91;;;-2.04;83.43
